Time;durP1;ratioP1;P1;durP2;ratioP2;P2;SDS_P1;SDS_P2;PMS_P1;PMS_P2;Temp;Humidity;BMP_temperature;BMP_pressure;BME280_temperature;BME280_humidity;BME280_pressure;Samples;Min_cycle;Max_cycle;Signal;HPM_P1;HPM_P2
2021/07/21 00:00:42;;;;;;;25.55;14.38;;;17.40;86.50;;;;;;5096982;28;20174;-90
2021/07/21 00:03:08;;;;;;;24.23;12.88;;;17.30;86.90;;;;;;5096952;28;20646;-90
2021/07/21 00:05:36;;;;;;;19.77;13.30;;;17.30;86.90;;;;;;5115108;28;20242;-90
2021/07/21 00:08:01;;;;;;;20.17;12.57;;;17.30;87.20;;;;;;5096889;28;20173;-90
2021/07/21 00:10:30;;;;;;;19.83;12.63;;;17.30;87.30;;;;;;5115114;28;20249;-91
2021/07/21 00:15:47;;;;;;;17.60;12.25;;;17.40;86.30;;;;;;5115160;28;20222;-91
2021/07/21 00:18:30;;;;;;;19.10;12.48;;;17.40;86.40;;;;;;5114915;28;20198;-91
2021/07/21 00:20:55;;;;;;;14.68;11.20;;;17.40;86.60;;;;;;5115304;28;20147;-90
2021/07/21 00:23:21;;;;;;;16.85;10.88;;;17.40;86.50;;;;;;5113680;28;20208;-91
2021/07/21 00:25:48;;;;;;;18.90;11.82;;;17.50;86.30;;;;;;5096593;28;20305;-91
2021/07/21 00:28:14;;;;;;;19.13;11.07;;;17.50;86.20;;;;;;5097062;28;20205;-91
2021/07/21 00:30:40;;;;;;;17.63;10.75;;;17.40;86.70;;;;;;5096462;28;20178;-91
2021/07/21 00:33:06;;;;;;;18.80;11.02;;;17.50;86.70;;;;;;5114588;28;20198;-91
2021/07/21 00:35:31;;;;;;;17.23;11.73;;;17.50;86.60;;;;;;5096312;28;20196;-91
2021/07/21 00:37:57;;;;;;;18.23;11.68;;;17.40;86.90;;;;;;5096354;28;20209;-91
2021/07/21 00:40:23;;;;;;;20.90;12.55;;;17.40;87.00;;;;;;5096189;28;20174;-90
2021/07/21 00:42:49;;;;;;;17.48;12.85;;;17.20;87.80;;;;;;5114457;28;20169;-90
2021/07/21 00:45:14;;;;;;;18.58;13.07;;;17.20;87.60;;;;;;5096222;28;20296;-90
2021/07/21 00:47:40;;;;;;;15.52;12.25;;;17.30;87.30;;;;;;5114419;28;20637;-91
2021/07/21 00:50:08;;;;;;;19.40;13.57;;;17.20;87.50;;;;;;5112332;28;20173;-90
2021/07/21 00:52:36;;;;;;;19.92;13.05;;;17.20;87.70;;;;;;5096182;28;20227;-90
2021/07/21 00:55:07;;;;;;;23.25;13.98;;;17.30;87.50;;;;;;5096199;28;20257;-90
2021/07/21 00:57:33;;;;;;;21.13;12.82;;;17.30;87.60;;;;;;5095908;28;20200;-90
2021/07/21 00:59:58;;;;;;;16.25;13.30;;;17.20;87.70;;;;;;5114289;28;20162;-91
2021/07/21 01:02:25;;;;;;;21.42;13.93;;;17.30;87.40;;;;;;5095943;28;20170;-91
2021/07/21 01:04:51;;;;;;;18.38;13.43;;;17.30;87.30;;;;;;5095886;28;20174;-91
2021/07/21 01:07:17;;;;;;;21.20;13.50;;;17.30;87.20;;;;;;5095884;28;20274;-90
2021/07/21 01:09:45;;;;;;;16.02;12.00;;;17.30;87.20;;;;;;5114015;28;20201;-91
2021/07/21 01:12:21;;;;;;;23.25;13.57;;;17.30;87.00;;;;;;5114070;28;20194;-91
2021/07/21 01:15:10;;;;;;;16.98;12.25;;;17.30;87.10;;;;;;5113037;28;20169;-90
2021/07/21 01:18:08;;;;;;;18.83;13.27;;;17.20;87.60;;;;;;5095851;28;20208;-91
2021/07/21 01:21:09;;;;;;;25.70;12.63;;;17.20;87.60;;;;;;5080795;28;20178;-91
2021/07/21 01:23:47;;;;;;;18.40;13.38;;;17.20;87.50;;;;;;5095935;28;20249;-91
2021/07/21 01:26:25;;;;;;;20.25;12.82;;;17.20;87.70;;;;;;5112769;28;20569;-91
2021/07/21 01:28:52;;;;;;;20.42;12.93;;;17.20;87.70;;;;;;5095780;28;20250;-90
2021/07/21 01:31:25;;;;;;;18.40;12.38;;;17.20;87.90;;;;;;5095763;28;20201;-91
2021/07/21 01:33:50;;;;;;;20.55;14.82;;;17.10;88.10;;;;;;5095759;28;20166;-90
2021/07/21 01:36:21;;;;;;;18.33;13.13;;;17.10;88.00;;;;;;5095931;28;20197;-91
2021/07/21 01:38:51;;;;;;;22.38;14.13;;;17.10;88.10;;;;;;5112797;28;20158;-90
2021/07/21 01:41:24;;;;;;;18.90;14.50;;;17.10;88.00;;;;;;5095720;28;20174;-90
2021/07/21 01:43:56;;;;;;;21.65;15.00;;;17.00;88.40;;;;;;5112522;28;20174;-90
2021/07/21 01:46:23;;;;;;;19.85;14.45;;;17.00;88.30;;;;;;5095601;28;20198;-90
2021/07/21 01:48:51;;;;;;;24.85;15.35;;;16.90;88.70;;;;;;5095579;28;20227;-90
2021/07/21 01:51:18;;;;;;;25.77;15.63;;;16.80;88.90;;;;;;5112410;28;20220;-90
2021/07/21 01:53:45;;;;;;;22.40;15.35;;;16.80;89.00;;;;;;5095498;28;20205;-90
2021/07/21 01:56:12;;;;;;;21.55;15.38;;;16.80;89.00;;;;;;5095356;28;20202;-90
2021/07/21 01:58:39;;;;;;;22.17;16.13;;;16.80;88.90;;;;;;5095424;28;20638;-90
2021/07/21 02:01:07;;;;;;;21.17;14.45;;;16.90;88.90;;;;;;5097171;28;20169;-91
2021/07/21 02:03:34;;;;;;;22.85;15.27;;;16.90;88.80;;;;;;5099347;28;20517;-90
2021/07/21 02:06:03;;;;;;;22.77;14.85;;;17.00;88.50;;;;;;5099199;28;20190;-91
2021/07/21 02:08:29;;;;;;;21.85;14.93;;;17.00;88.40;;;;;;5099082;28;20185;-90
2021/07/21 02:11:00;;;;;;;23.95;15.30;;;17.00;88.70;;;;;;5099069;28;20217;-90
2021/07/21 02:13:27;;;;;;;24.85;14.63;;;17.00;88.50;;;;;;5099092;28;20166;-91
2021/07/21 02:15:53;;;;;;;20.20;14.27;;;17.00;88.30;;;;;;5098778;28;20214;-90
2021/07/21 02:18:20;;;;;;;20.38;13.88;;;17.00;88.40;;;;;;5117276;28;20161;-90
2021/07/21 02:20:47;;;;;;;19.85;14.85;;;17.00;88.30;;;;;;5099336;28;20174;-91
2021/07/21 02:23:14;;;;;;;23.73;16.23;;;17.00;88.30;;;;;;5099154;28;20699;-90
2021/07/21 02:25:41;;;;;;;21.73;14.15;;;16.90;88.50;;;;;;5098968;28;20197;-90
2021/07/21 02:28:07;;;;;;;21.48;15.88;;;16.90;88.50;;;;;;5098970;28;20231;-90
2021/07/21 02:30:34;;;;;;;21.13;14.73;;;16.80;88.70;;;;;;5099039;28;20281;-90
2021/07/21 02:33:14;;;;;;;24.08;14.75;;;16.80;88.60;;;;;;5098840;28;20272;-90
2021/07/21 02:35:39;;;;;;;21.77;15.75;;;16.80;88.70;;;;;;5116856;28;20190;-90
2021/07/21 02:38:05;;;;;;;26.02;15.48;;;16.80;88.80;;;;;;5098647;28;20714;-90
2021/07/21 02:40:31;;;;;;;22.40;15.55;;;16.80;89.00;;;;;;5115616;28;20173;-90
2021/07/21 02:42:58;;;;;;;23.25;14.23;;;16.80;88.90;;;;;;5098504;28;20198;-90
2021/07/21 02:45:24;;;;;;;18.65;14.68;;;16.80;88.60;;;;;;5098484;28;20661;-90
2021/07/21 02:47:50;;;;;;;26.35;15.50;;;16.80;88.50;;;;;;5116644;28;20247;-90
2021/07/21 02:50:17;;;;;;;30.85;16.60;;;16.80;88.60;;;;;;5098460;28;20178;-90
2021/07/21 02:53:07;;;;;;;23.85;15.02;;;16.80;88.30;;;;;;5116681;28;20233;-90
2021/07/21 02:55:38;;;;;;;23.52;14.77;;;16.80;88.60;;;;;;5099164;28;20222;-90
2021/07/21 02:58:09;;;;;;;24.83;14.57;;;16.80;88.50;;;;;;5098409;28;20158;-90
2021/07/21 03:00:35;;;;;;;25.33;14.13;;;16.80;88.50;;;;;;5116555;28;20219;-90
2021/07/21 03:03:05;;;;;;;20.20;13.95;;;16.80;88.70;;;;;;5098342;28;20208;-90
2021/07/21 03:05:32;;;;;;;24.15;15.73;;;16.80;88.80;;;;;;5098190;28;20264;-90
2021/07/21 03:07:59;;;;;;;21.88;14.90;;;16.80;88.80;;;;;;5098792;28;20181;-90
2021/07/21 03:10:27;;;;;;;25.67;15.00;;;16.80;88.90;;;;;;5098084;28;20170;-90
2021/07/21 03:13:05;;;;;;;26.73;15.18;;;16.80;88.90;;;;;;5098537;28;20288;-90
2021/07/21 03:15:35;;;;;;;20.92;15.93;;;16.90;88.70;;;;;;5098028;28;20206;-90
2021/07/21 03:18:02;;;;;;;24.15;15.70;;;16.90;88.90;;;;;;5098272;28;20170;-90
2021/07/21 03:20:29;;;;;;;20.35;15.80;;;16.80;89.30;;;;;;5098515;28;20224;-90
2021/07/21 03:22:59;;;;;;;26.67;17.48;;;16.80;89.30;;;;;;5098152;28;20716;-90
2021/07/21 03:25:27;;;;;;;27.90;16.95;;;16.80;89.50;;;;;;5098291;28;20695;-90
2021/07/21 03:27:54;;;;;;;22.58;16.15;;;16.80;89.50;;;;;;5116316;28;20177;-90
2021/07/21 03:30:21;;;;;;;27.15;16.25;;;16.80;89.60;;;;;;5115124;28;20239;-90
2021/07/21 03:32:48;;;;;;;27.60;17.75;;;16.80;89.60;;;;;;5097941;28;20202;-90
2021/07/21 03:35:16;;;;;;;30.70;18.70;;;16.80;89.50;;;;;;5116164;28;20170;-90
2021/07/21 03:37:45;;;;;;;28.80;17.75;;;16.80;89.50;;;;;;5115201;28;20167;-89
2021/07/21 03:40:12;;;;;;;28.75;17.48;;;16.80;89.50;;;;;;5098403;28;20730;-90
2021/07/21 03:42:38;;;;;;;29.15;17.88;;;16.80;89.70;;;;;;5097543;28;20181;-90
2021/07/21 03:45:10;;;;;;;29.40;17.52;;;16.70;89.70;;;;;;5098000;28;20178;-90
2021/07/21 03:47:36;;;;;;;23.92;17.17;;;16.80;89.60;;;;;;5115907;28;20197;-90
2021/07/21 03:50:04;;;;;;;25.05;17.13;;;16.70;89.40;;;;;;5098509;28;20181;-90
2021/07/21 03:52:31;;;;;;;25.92;17.67;;;16.80;89.40;;;;;;5097324;28;20198;-90
2021/07/21 03:54:57;;;;;;;32.75;17.25;;;16.80;89.40;;;;;;5115501;28;20762;-90
2021/07/21 03:57:24;;;;;;;30.30;18.95;;;16.80;89.50;;;;;;5097173;28;20670;-90
2021/07/21 03:59:50;;;;;;;26.98;17.63;;;16.70;89.60;;;;;;5097285;28;20177;-90
2021/07/21 04:02:17;;;;;;;24.95;17.35;;;16.70;89.50;;;;;;5114235;28;20197;-90
2021/07/21 04:04:46;;;;;;;29.33;18.70;;;16.70;89.50;;;;;;5097185;28;20170;-90
2021/07/21 04:07:14;;;;;;;26.83;17.75;;;16.70;89.60;;;;;;5096987;28;20285;-90
2021/07/21 04:09:41;;;;;;;28.98;17.85;;;16.70;89.60;;;;;;5097187;28;20209;-90
2021/07/21 04:12:09;;;;;;;25.20;18.15;;;16.70;89.50;;;;;;5096978;28;20200;-90
2021/07/21 04:14:35;;;;;;;29.83;19.10;;;16.60;89.70;;;;;;5097787;28;20503;-90
2021/07/21 04:17:02;;;;;;;26.45;18.75;;;16.60;89.70;;;;;;5115073;28;20232;-90
2021/07/21 04:19:28;;;;;;;29.75;17.58;;;16.60;89.90;;;;;;5114985;28;20174;-90
2021/07/21 04:21:55;;;;;;;29.08;18.92;;;16.60;89.80;;;;;;5096772;28;20185;-90
2021/07/21 04:24:23;;;;;;;23.02;17.27;;;16.60;89.60;;;;;;5096867;28;20305;-90
2021/07/21 04:26:50;;;;;;;28.67;16.58;;;16.60;89.60;;;;;;5113829;28;20197;-90
2021/07/21 04:29:25;;;;;;;26.40;17.10;;;16.60;89.70;;;;;;5096788;28;20178;-91
2021/07/21 04:31:52;;;;;;;23.75;16.65;;;16.70;89.40;;;;;;5114903;28;20661;-90
2021/07/21 04:34:19;;;;;;;25.45;17.02;;;16.70;89.50;;;;;;5097241;28;20170;-90
2021/07/21 04:36:45;;;;;;;28.00;17.63;;;16.70;89.50;;;;;;5096405;28;20237;-90
2021/07/21 04:39:14;;;;;;;26.23;16.15;;;16.70;89.50;;;;;;5096523;28;20162;-90
2021/07/21 04:41:42;;;;;;;37.47;18.40;;;16.70;89.50;;;;;;5096570;28;20671;-90
2021/07/21 04:44:08;;;;;;;32.97;17.85;;;16.70;89.60;;;;;;5114706;28;20197;-90
2021/07/21 04:46:36;;;;;;;26.35;17.85;;;16.70;89.40;;;;;;5096122;28;20632;-90
2021/07/21 04:49:05;;;;;;;28.90;17.35;;;16.70;89.60;;;;;;5096312;28;20186;-90
2021/07/21 04:51:32;;;;;;;27.73;16.50;;;16.70;89.60;;;;;;5114347;28;20681;-90
2021/07/21 04:54:05;;;;;;;27.20;17.17;;;16.70;89.70;;;;;;5096257;28;20170;-90
2021/07/21 04:56:33;;;;;;;30.00;17.67;;;16.70;89.60;;;;;;5114717;28;20225;-90
2021/07/21 04:58:59;;;;;;;28.23;18.73;;;16.70;89.80;;;;;;5096166;28;20608;-90
2021/07/21 05:01:25;;;;;;;28.38;17.08;;;16.70;89.70;;;;;;5114607;28;20166;-90
2021/07/21 05:03:54;;;;;;;29.17;17.42;;;16.80;89.50;;;;;;5096277;28;20222;-90
2021/07/21 05:06:21;;;;;;;24.00;16.88;;;16.80;89.60;;;;;;5096090;28;20201;-90
2021/07/21 05:08:46;;;;;;;27.80;16.25;;;16.80;89.60;;;;;;5114090;28;20541;-91
2021/07/21 05:11:12;;;;;;;23.73;15.75;;;16.80;89.40;;;;;;5095794;28;20178;-90
2021/07/21 05:13:40;;;;;;;23.85;15.75;;;16.80;89.40;;;;;;5095844;28;20177;-90
2021/07/21 05:16:07;;;;;;;28.95;17.23;;;16.80;89.30;;;;;;5096556;28;20212;-90
2021/07/21 05:18:34;;;;;;;28.73;17.08;;;16.80;89.40;;;;;;5097729;28;20205;-91
2021/07/21 05:21:00;;;;;;;29.00;17.15;;;16.70;89.30;;;;;;5097928;28;20166;-90
2021/07/21 05:23:25;;;;;;;27.20;16.17;;;16.80;89.70;;;;;;5097900;28;20173;-90
2021/07/21 05:25:51;;;;;;;26.92;16.83;;;16.80;89.60;;;;;;5097994;28;20197;-90
2021/07/21 05:28:17;;;;;;;30.20;16.85;;;16.80;89.50;;;;;;5115944;28;20197;-90
2021/07/21 05:30:42;;;;;;;28.95;16.27;;;16.80;89.50;;;;;;5096856;28;20593;-90
2021/07/21 05:33:08;;;;;;;28.88;15.65;;;16.90;89.40;;;;;;5097169;28;20204;-90
2021/07/21 05:35:33;;;;;;;25.85;16.52;;;16.90;89.30;;;;;;5097539;28;20228;-90
2021/07/21 05:38:01;;;;;;;27.92;15.73;;;16.90;89.70;;;;;;5101303;28;20706;-90
2021/07/21 05:40:27;;;;;;;32.65;18.30;;;16.80;89.80;;;;;;5101131;28;20185;-90
2021/07/21 05:42:53;;;;;;;21.27;15.02;;;16.90;89.70;;;;;;5100642;28;20529;-90
2021/07/21 05:45:19;;;;;;;27.73;16.17;;;16.90;89.70;;;;;;5101518;28;20246;-90
2021/07/21 05:47:44;;;;;;;27.60;17.73;;;17.00;89.50;;;;;;5101701;28;20182;-90
2021/07/21 05:50:10;;;;;;;31.88;17.30;;;17.00;89.40;;;;;;5102400;28;20182;-90
2021/07/21 05:52:36;;;;;;;24.83;16.33;;;17.10;89.30;;;;;;5103162;28;20201;-90
2021/07/21 05:55:03;;;;;;;29.35;17.15;;;17.10;89.40;;;;;;5101358;28;20174;-89
2021/07/21 05:57:29;;;;;;;26.77;15.63;;;17.10;89.50;;;;;;5102354;28;20190;-90
2021/07/21 05:59:55;;;;;;;27.63;16.52;;;17.10;89.80;;;;;;5103334;28;20174;-90
2021/07/21 06:02:21;;;;;;;26.45;17.13;;;17.10;89.50;;;;;;5102881;28;20189;-90
2021/07/21 06:04:47;;;;;;;27.38;16.20;;;17.00;89.70;;;;;;5103010;28;20179;-89
2021/07/21 06:07:13;;;;;;;27.08;15.90;;;17.10;89.60;;;;;;5101964;28;20200;-90
2021/07/21 06:09:38;;;;;;;29.90;17.35;;;17.10;89.80;;;;;;5102231;28;20265;-89
2021/07/21 06:12:05;;;;;;;30.42;16.75;;;17.10;90.10;;;;;;5101701;28;20271;-90
2021/07/21 06:14:32;;;;;;;25.52;16.40;;;17.10;90.00;;;;;;5101945;28;20265;-90
2021/07/21 06:16:58;;;;;;;28.10;17.02;;;17.20;89.80;;;;;;5100897;28;20201;-90
2021/07/21 06:19:24;;;;;;;28.83;16.15;;;17.30;89.70;;;;;;5101389;28;20166;-90
2021/07/21 06:21:49;;;;;;;27.33;16.88;;;17.30;89.90;;;;;;5101368;28;20170;-91
2021/07/21 06:24:16;;;;;;;24.42;16.98;;;17.30;89.90;;;;;;5101518;28;20257;-90
2021/07/21 06:26:41;;;;;;;24.67;16.60;;;17.40;90.00;;;;;;5102393;28;20201;-90
2021/07/21 06:29:07;;;;;;;25.23;15.80;;;17.30;90.10;;;;;;5104273;28;20174;-90
2021/07/21 06:31:33;;;;;;;25.38;17.05;;;17.30;89.90;;;;;;5101304;28;20193;-90
2021/07/21 06:33:58;;;;;;;34.03;19.50;;;17.30;89.90;;;;;;5100522;28;20586;-90
2021/07/21 06:36:24;;;;;;;31.73;17.90;;;17.40;89.80;;;;;;5100950;28;20197;-89
2021/07/21 06:38:50;;;;;;;28.63;16.80;;;17.50;90.00;;;;;;5101052;28;20547;-90
2021/07/21 06:41:16;;;;;;;30.40;18.08;;;17.50;89.90;;;;;;5100992;28;20174;-90
2021/07/21 06:43:42;;;;;;;29.67;16.52;;;17.40;90.00;;;;;;5100856;28;20641;-89
2021/07/21 06:46:08;;;;;;;27.38;17.20;;;17.40;89.90;;;;;;5100185;28;20186;-90
2021/07/21 06:48:33;;;;;;;30.90;17.90;;;17.50;89.80;;;;;;5116947;28;20166;-89
2021/07/21 06:50:59;;;;;;;29.05;18.08;;;17.50;89.80;;;;;;5117637;28;20662;-89
2021/07/21 06:53:29;;;;;;;31.38;18.20;;;17.50;89.80;;;;;;5098964;28;20343;-89
2021/07/21 06:55:55;;;;;;;25.83;16.17;;;17.50;89.80;;;;;;5099144;28;20208;-89
2021/07/21 06:58:21;;;;;;;27.05;17.48;;;17.60;89.70;;;;;;5099379;28;20205;-89
2021/07/21 07:00:46;;;;;;;26.67;17.25;;;17.60;89.60;;;;;;5098369;28;20633;-89
2021/07/21 07:03:15;;;;;;;33.10;18.17;;;17.60;89.60;;;;;;5117734;28;20579;-92
2021/07/21 07:05:41;;;;;;;25.42;16.77;;;17.60;89.90;;;;;;5108977;28;20205;-92
2021/07/21 07:08:07;;;;;;;29.95;17.63;;;17.60;90.00;;;;;;5107892;28;20174;-91
2021/07/21 07:10:32;;;;;;;25.63;17.60;;;17.60;89.90;;;;;;5119337;28;20590;-91
2021/07/21 07:12:59;;;;;;;28.50;16.15;;;17.70;89.90;;;;;;5100847;28;20331;-91
2021/07/21 07:15:24;;;;;;;22.13;14.38;;;17.70;89.70;;;;;;5098631;28;20174;-89
2021/07/21 07:17:50;;;;;;;18.02;12.52;;;17.70;89.40;;;;;;5116237;28;20206;-90
2021/07/21 07:20:16;;;;;;;18.40;13.55;;;17.60;89.10;;;;;;5115949;28;20162;-89
2021/07/21 07:22:42;;;;;;;19.52;13.45;;;17.50;89.30;;;;;;5115818;28;20170;-89
2021/07/21 07:25:08;;;;;;;16.77;11.73;;;17.40;89.50;;;;;;5097481;28;20562;-89
2021/07/21 07:27:33;;;;;;;14.05;9.05;;;17.30;89.40;;;;;;5114424;28;20677;-89
2021/07/21 07:29:59;;;;;;;13.90;9.45;;;17.20;88.40;;;;;;5115740;28;20642;-89
2021/07/21 07:32:25;;;;;;;14.50;10.68;;;17.20;88.80;;;;;;5115604;28;20198;-90
2021/07/21 07:34:51;;;;;;;15.63;11.43;;;17.20;88.80;;;;;;5115959;28;20602;-89
2021/07/21 07:37:17;;;;;;;16.65;11.27;;;17.20;88.80;;;;;;5114898;28;20224;-88
2021/07/21 07:39:44;;;;;;;17.90;11.07;;;17.20;89.00;;;;;;5097501;28;20166;-90
2021/07/21 07:42:09;;;;;;;18.20;10.68;;;17.20;89.00;;;;;;5115604;28;20634;-90
2021/07/21 07:44:35;;;;;;;17.45;10.95;;;17.20;89.40;;;;;;5097269;28;20182;-90
2021/07/21 07:47:01;;;;;;;16.20;11.82;;;17.20;89.30;;;;;;5097412;28;20194;-90
2021/07/21 07:49:27;;;;;;;16.80;11.57;;;17.10;89.40;;;;;;5114395;28;20178;-90
2021/07/21 07:51:52;;;;;;;13.13;10.23;;;17.10;89.50;;;;;;5115722;28;20193;-90
2021/07/21 07:54:20;;;;;;;16.42;10.65;;;17.20;89.50;;;;;;5097570;28;20547;-90
2021/07/21 07:56:47;;;;;;;14.73;10.30;;;17.20;89.40;;;;;;5114231;28;20673;-90
2021/07/21 07:59:13;;;;;;;11.90;10.55;;;17.20;89.00;;;;;;5115220;28;20174;-90
2021/07/21 08:01:39;;;;;;;14.45;10.10;;;17.10;89.70;;;;;;5115882;28;20174;-90
2021/07/21 08:04:05;;;;;;;14.70;10.13;;;17.10;89.70;;;;;;5114356;28;20178;-90
2021/07/21 08:06:31;;;;;;;12.27;10.00;;;17.10;90.20;;;;;;5097044;28;20225;-90
2021/07/21 08:08:56;;;;;;;16.23;11.45;;;17.20;90.70;;;;;;5114085;28;20230;-90
2021/07/21 08:11:22;;;;;;;13.50;11.02;;;17.20;91.00;;;;;;5115281;28;20685;-90
2021/07/21 08:13:47;;;;;;;16.38;10.23;;;17.20;90.90;;;;;;5115499;28;20170;-90
2021/07/21 08:16:13;;;;;;;17.48;11.60;;;17.20;90.90;;;;;;5096608;28;20210;-90
2021/07/21 08:18:39;;;;;;;20.05;12.73;;;17.30;90.90;;;;;;5114838;28;20181;-90
2021/07/21 08:21:05;;;;;;;15.32;11.43;;;17.40;90.70;;;;;;5096517;28;20185;-90
2021/07/21 08:23:32;;;;;;;14.38;10.73;;;17.40;90.60;;;;;;5114748;28;20592;-90
2021/07/21 08:25:57;;;;;;;15.13;11.27;;;17.50;90.30;;;;;;5096863;28;20193;-90
2021/07/21 08:28:23;;;;;;;14.40;10.45;;;17.50;90.10;;;;;;5096966;28;20185;-90
2021/07/21 08:30:49;;;;;;;12.52;9.35;;;17.70;89.70;;;;;;5096754;28;20174;-90
2021/07/21 08:33:15;;;;;;;11.85;8.80;;;17.70;89.10;;;;;;5114766;28;20197;-90
2021/07/21 08:35:41;;;;;;;12.02;8.27;;;17.70;88.30;;;;;;5096633;28;20186;-89
2021/07/21 08:38:07;;;;;;;12.25;8.60;;;17.80;88.60;;;;;;5114634;28;20250;-90
2021/07/21 08:40:33;;;;;;;9.73;8.45;;;17.70;88.70;;;;;;5114537;28;20642;-90
2021/07/21 08:42:59;;;;;;;9.70;8.27;;;17.80;87.80;;;;;;5096325;28;20277;-90
2021/07/21 08:45:26;;;;;;;10.20;8.05;;;17.70;88.50;;;;;;5114536;28;20202;-90
2021/07/21 08:47:52;;;;;;;16.05;8.55;;;17.60;88.40;;;;;;5114563;28;20174;-89
2021/07/21 08:50:18;;;;;;;12.82;7.93;;;17.30;88.80;;;;;;5114459;28;20177;-90
2021/07/21 08:52:45;;;;;;;9.40;7.85;;;17.30;89.00;;;;;;5114672;28;20197;-90
2021/07/21 08:55:13;;;;;;;14.05;9.05;;;17.20;89.40;;;;;;5114580;28;20215;-90
2021/07/21 08:57:40;;;;;;;9.77;7.70;;;17.10;89.80;;;;;;5096143;28;20173;-89
2021/07/21 09:00:08;;;;;;;11.07;8.63;;;17.10;89.90;;;;;;5096097;28;20170;-90
2021/07/21 09:02:35;;;;;;;9.98;7.70;;;17.00;89.40;;;;;;5096084;28;20287;-90
2021/07/21 09:05:02;;;;;;;11.73;9.30;;;17.00;89.10;;;;;;5096023;28;20232;-90
2021/07/21 09:07:28;;;;;;;13.30;9.43;;;17.00;89.70;;;;;;5113868;28;20204;-89
2021/07/21 09:09:54;;;;;;;13.38;9.50;;;16.90;90.50;;;;;;5114161;28;20177;-89
2021/07/21 09:12:19;;;;;;;12.20;9.75;;;16.90;90.50;;;;;;5113974;28;20198;-90
2021/07/21 09:14:45;;;;;;;14.38;9.75;;;16.90;90.70;;;;;;5114528;28;20166;-90
2021/07/21 09:17:16;;;;;;;15.27;11.10;;;16.90;90.10;;;;;;5114605;28;20205;-90
2021/07/21 09:19:49;;;;;;;13.50;9.35;;;16.90;90.50;;;;;;5114086;28;20166;-89
2021/07/21 09:22:21;;;;;;;13.00;10.57;;;17.10;90.30;;;;;;5114643;28;20158;-90
2021/07/21 09:25:09;;;;;;;13.50;9.60;;;17.30;90.50;;;;;;5112857;28;20190;-90
2021/07/21 09:27:35;;;;;;;11.38;9.32;;;17.30;89.20;;;;;;5113944;28;20201;-90
2021/07/21 09:30:01;;;;;;;12.57;9.27;;;17.40;89.30;;;;;;5095751;28;20174;-89
2021/07/21 09:32:27;;;;;;;17.23;10.13;;;17.50;89.20;;;;;;5113829;28;20704;-90
2021/07/21 09:34:53;;;;;;;10.77;8.88;;;17.60;89.80;;;;;;5114252;28;20176;-90
2021/07/21 09:37:20;;;;;;;13.93;9.85;;;17.70;89.10;;;;;;5095610;28;20196;-90
2021/07/21 09:39:50;;;;;;;11.55;8.77;;;17.80;89.20;;;;;;5114352;28;20177;-90
2021/07/21 09:42:17;;;;;;;11.95;8.40;;;18.00;88.90;;;;;;5113865;28;20166;-90
2021/07/21 09:44:45;;;;;;;10.55;8.68;;;18.10;88.70;;;;;;5114019;28;20520;-90
2021/07/21 09:47:21;;;;;;;10.93;8.07;;;18.10;88.30;;;;;;5113919;28;20197;-90
2021/07/21 09:49:48;;;;;;;12.35;9.18;;;18.00;86.90;;;;;;5096541;28;20162;-90
2021/07/21 09:52:15;;;;;;;16.88;10.68;;;18.20;88.90;;;;;;5114193;28;20256;-90
2021/07/21 09:54:41;;;;;;;13.45;10.10;;;18.20;87.30;;;;;;5114110;28;20162;-90
2021/07/21 09:57:13;;;;;;;11.95;9.85;;;18.30;87.80;;;;;;5113661;28;20591;-90
2021/07/21 09:59:39;;;;;;;14.75;10.93;;;18.20;87.40;;;;;;5113855;28;20162;-90
2021/07/21 10:02:20;;;;;;;12.82;10.02;;;18.20;87.40;;;;;;5114379;28;20180;-90
2021/07/21 10:04:47;;;;;;;18.25;10.07;;;18.40;88.20;;;;;;5113083;28;20173;-90
2021/07/21 10:10:11;;;;;;;14.85;11.30;;;18.30;86.70;;;;;;5079824;28;20276;-90
2021/07/21 10:12:37;;;;;;;12.75;10.70;;;18.30;87.00;;;;;;5112936;28;20335;-90
2021/07/21 10:15:03;;;;;;;17.38;10.02;;;18.50;87.10;;;;;;5113499;28;20177;-89
2021/07/21 10:17:29;;;;;;;11.25;9.23;;;18.50;86.40;;;;;;5114191;28;20237;-90
2021/07/21 10:19:56;;;;;;;14.95;10.00;;;18.60;85.70;;;;;;5096651;28;20231;-89
2021/07/21 10:22:22;;;;;;;14.00;9.50;;;18.40;85.90;;;;;;5116033;28;20170;-90
2021/07/21 10:24:48;;;;;;;16.50;10.25;;;18.40;85.90;;;;;;5118155;28;20170;-90
2021/07/21 10:27:15;;;;;;;13.60;9.75;;;18.40;86.70;;;;;;5100108;28;20290;-89
2021/07/21 10:29:42;;;;;;;12.57;9.38;;;18.50;85.80;;;;;;5099881;28;20246;-89
2021/07/21 10:32:10;;;;;;;11.75;8.63;;;18.50;84.80;;;;;;5099825;28;20258;-90
2021/07/21 10:34:36;;;;;;;14.57;8.52;;;18.50;85.20;;;;;;5118072;28;20169;-90
2021/07/21 10:37:02;;;;;;;10.15;7.80;;;18.40;85.20;;;;;;5099378;28;20190;-89
2021/07/21 10:39:31;;;;;;;11.65;8.07;;;18.50;85.40;;;;;;5099982;28;20173;-90
2021/07/21 10:42:04;;;;;;;10.80;7.97;;;18.80;85.10;;;;;;5099427;28;20181;-90
2021/07/21 10:44:30;;;;;;;11.00;8.05;;;18.70;83.80;;;;;;5117854;28;20162;-90
2021/07/21 10:46:56;;;;;;;11.85;8.77;;;18.70;83.90;;;;;;5099599;28;20200;-90
2021/07/21 10:49:37;;;;;;;10.38;7.30;;;18.80;84.20;;;;;;5099634;28;20169;-90
2021/07/21 11:00:15;;;;;;;11.82;6.80;;;18.90;83.30;;;;;;5117190;28;20181;-90
2021/07/21 11:02:41;;;;;;;11.02;8.02;;;18.80;83.00;;;;;;5099186;28;20243;-90
2021/07/21 11:05:09;;;;;;;13.10;7.53;;;19.20;84.60;;;;;;5099111;28;20205;-90
2021/07/21 11:07:52;;;;;;;12.18;8.15;;;19.40;82.50;;;;;;5098874;28;20225;-90
2021/07/21 11:10:37;;;;;;;10.75;7.85;;;19.50;83.00;;;;;;5117237;28;20243;-90
2021/07/21 11:13:07;;;;;;;11.00;7.32;;;20.10;82.20;;;;;;5117461;28;20265;-90
2021/07/21 11:15:36;;;;;;;8.63;6.25;;;20.20;81.20;;;;;;5117163;28;20277;-90
2021/07/21 11:18:24;;;;;;;11.75;7.35;;;20.20;77.90;;;;;;5116434;28;20246;-90
2021/07/21 11:21:02;;;;;;;8.35;6.93;;;20.20;78.80;;;;;;5115913;28;20170;-90
2021/07/21 11:23:45;;;;;;;10.18;7.70;;;20.20;78.40;;;;;;5097677;28;20205;-90
2021/07/21 11:26:29;;;;;;;8.32;6.50;;;20.30;79.60;;;;;;5115829;28;20209;-91
2021/07/21 11:28:56;;;;;;;8.63;6.95;;;20.70;78.50;;;;;;5097633;28;20282;-90
2021/07/21 11:31:49;;;;;;;9.27;6.82;;;20.80;78.10;;;;;;5115804;28;20166;-90
2021/07/21 11:34:25;;;;;;;10.82;6.40;;;20.80;77.10;;;;;;5096870;28;20185;-90
2021/07/21 11:36:55;;;;;;;9.85;5.72;;;20.70;73.80;;;;;;5115756;28;20181;-90
2021/07/21 11:39:45;;;;;;;9.75;6.40;;;20.60;74.70;;;;;;5116012;28;20166;-90
2021/07/21 11:42:29;;;;;;;9.80;5.80;;;21.00;76.40;;;;;;5116000;28;20494;-90
2021/07/21 11:45:09;;;;;;;12.70;6.53;;;21.10;74.70;;;;;;5115451;28;20315;-90
2021/07/21 11:47:44;;;;;;;7.95;5.93;;;21.20;74.50;;;;;;5115397;28;20272;-90
2021/07/21 11:50:13;;;;;;;7.93;6.18;;;20.70;75.00;;;;;;5115572;28;20185;-90
2021/07/21 11:52:41;;;;;;;12.07;5.95;;;20.70;76.40;;;;;;5115536;28;20563;-90
2021/07/21 11:55:07;;;;;;;8.25;6.25;;;20.70;76.70;;;;;;5115542;28;20166;-90
2021/07/21 11:57:33;;;;;;;10.10;6.68;;;20.70;75.70;;;;;;5115240;28;20189;-90
2021/07/21 12:00:02;;;;;;;6.68;5.85;;;20.50;75.20;;;;;;5115259;28;20173;-90
2021/07/21 12:02:29;;;;;;;6.85;5.53;;;20.30;76.30;;;;;;5115208;28;20517;-90
2021/07/21 12:04:57;;;;;;;9.35;6.13;;;20.30;77.30;;;;;;5115206;28;20223;-90
2021/07/21 12:07:30;;;;;;;11.27;6.78;;;20.20;77.10;;;;;;5115054;28;20194;-90
2021/07/21 12:09:56;;;;;;;11.45;7.20;;;20.70;76.90;;;;;;5096792;28;20169;-90
2021/07/21 12:12:25;;;;;;;9.85;6.60;;;20.80;76.20;;;;;;5114941;28;20197;-90
2021/07/21 12:14:56;;;;;;;12.20;6.68;;;20.80;77.60;;;;;;5114911;28;20165;-90
2021/07/21 12:17:26;;;;;;;8.60;6.07;;;20.80;76.90;;;;;;5114822;28;20197;-90
2021/07/21 12:19:57;;;;;;;11.18;6.22;;;20.90;76.60;;;;;;5114854;28;20162;-90
2021/07/21 12:22:25;;;;;;;10.38;6.70;;;21.40;76.20;;;;;;5096581;28;20174;-90
2021/07/21 12:24:56;;;;;;;8.35;7.03;;;21.50;73.40;;;;;;5114655;28;20605;-90
2021/07/21 12:27:29;;;;;;;8.25;6.35;;;21.70;72.60;;;;;;5114688;28;20580;-90
2021/07/21 12:30:02;;;;;;;12.02;6.82;;;21.80;71.20;;;;;;5114687;28;20250;-90
2021/07/21 12:32:28;;;;;;;7.93;5.57;;;21.90;69.80;;;;;;5114489;28;20186;-90
2021/07/21 12:34:55;;;;;;;8.65;5.55;;;21.70;67.90;;;;;;5114829;28;20645;-90
2021/07/21 12:37:26;;;;;;;9.57;5.88;;;21.60;70.00;;;;;;5114406;28;20186;-90
2021/07/21 12:39:54;;;;;;;8.43;5.82;;;21.40;69.00;;;;;;5114490;28;20150;-90
2021/07/21 12:42:22;;;;;;;10.00;6.07;;;21.50;69.40;;;;;;5114639;28;20630;-90
2021/07/21 12:44:53;;;;;;;10.25;6.20;;;21.30;68.30;;;;;;5095646;28;20178;-91
2021/07/21 12:47:22;;;;;;;10.55;6.53;;;21.20;69.00;;;;;;5113931;28;20277;-90
2021/07/21 12:49:53;;;;;;;7.82;5.97;;;21.20;69.50;;;;;;5114260;28;20170;-90